CheckWX is a tool to help pilots better visualize weather data.  It is not intended as a substitute for an official pre-flight weather briefing.

21:48:11 UTC

KCIC METAR
Chico Municipal Airport
Chico, California, USA
Current

1 hour ago

KCIC 232047Z 11007KT 10SM BKN100 11/M04 A3032
Observed
Feb-23 @ 20:47 UTC
Wind
  • 110° at 7 KTS
Visibility
10 SM
Flight Rules
VFR
Cloud Levels
  • Broken at 10,000' AGL
Temperature
11°C / 52°F
Dewpoint
-4°C / 25°F
Humidity
35%
Altimeter
30.32" Hg
Pressure
1026.72 hPa
Previous

2 hours ago

KCIC 231947Z 16009KT 10SM BKN100 10/M04 A3035
Observed
Feb-23 @ 19:47 UTC
Wind
  • 160° at 9 KTS
Visibility
10 SM
Flight Rules
VFR
Cloud Levels
  • Broken at 10,000' AGL
Temperature
10°C / 50°F
Dewpoint
-4°C / 25°F
Humidity
37%
Altimeter
30.35" Hg
Pressure
1027.82 hPa
Previous

3 hours ago

KCIC 231847Z 15007KT 10SM BKN090 08/M03 A3035
Observed
Feb-23 @ 18:47 UTC
Wind
  • 150° at 7 KTS
Visibility
10 SM
Flight Rules
VFR
Cloud Levels
  • Broken at 9,000' AGL
Temperature
C / 46°F
Dewpoint
-3°C / 27°F
Humidity
46%
Altimeter
30.35" Hg
Pressure
1027.82 hPa